This is the latest recevied weather packets stored in our database for station/object KF0PEC-15. If no packets are shown the sender has not sent any weather packets the latest 10 day(s).
| Time | Temp. | Humidity | Pressure | Rain* | Wind** | Luminosity | Snow |
|---|---|---|---|---|---|---|---|
| 1777645080 | 4.44° C | 82% | 1026.7 hPa | 0 mm | - | 213 W/m² | - |
| 1777644505 | 3.33° C | 93% | 1027.8 hPa | 0 mm | - | 180 W/m² | - |
| 1777644005 | 1.67° C | 93% | 1028.9 hPa | 0 mm | - | 803 W/m² | - |
| 1777643525 | 1.67° C | 94% | 1029.1 hPa | 0 mm | - | 568 W/m² | - |
| 1777642975 | 1.11° C | 95% | 1029.5 hPa | 0 mm | - | 497 W/m² | - |
| 1777642375 | 1.11° C | 96% | 1029.7 hPa | 0 mm | - | 471 W/m² | - |
| 1777641870 | 0.56° C | 96% | 1029.7 hPa | 0 mm | - | 432 W/m² | - |
| 1777641380 | 0.56° C | 96% | 1029.7 hPa | 0 mm | - | 408 W/m² | - |
| 1777640865 | 0.56° C | 96% | 1029.7 hPa | 0 mm | - | 363 W/m² | - |
| 1777640350 | 0.56° C | 96% | 1029.6 hPa | 0 mm | - | 325 W/m² | - |
| 1777639760 | 0° C | 96% | 1029.8 hPa | 0 mm | - | 273 W/m² | - |
| 1777639175 | 0° C | 96% | 1030.1 hPa | 0 mm | - | 207 W/m² | - |
| 1777638620 | 0° C | 96% | 1030 hPa | 0 mm | - | 148 W/m² | - |
| 1777638075 | 0° C | 96% | 1030 hPa | 0 mm | - | 113 W/m² | - |
| 1777637515 | -0.56° C | 96% | 1030.2 hPa | 0 mm | - | 564 W/m² | - |
| 1777636920 | -0.56° C | 96% | 1030.3 hPa | 0 mm | - | 190 W/m² | - |
| 1777636335 | -0.56° C | 96% | 1030.3 hPa | 0 mm | - | 34 W/m² | - |
| 1777635775 | -0.56° C | 95% | 1030.3 hPa | 0 mm | - | 0 W/m² | - |
| 1777635275 | -0.56° C | 95% | 1030.3 hPa | 0 mm | - | 0 W/m² | - |
| 1777634790 | -0.56° C | 95% | 1030.3 hPa | 0 mm | - | 0 W/m² | - |
| 1777634250 | -0.56° C | 95% | 1030.3 hPa | 0 mm | - | 0 W/m² | - |
| 1777633666 | -0.56° C | 95% | 1030.3 hPa | 0 mm | - | 0 W/m² | - |
| 1777633145 | -0.56° C | 95% | 1030 hPa | 0 mm | - | 0 W/m² | - |
| 1777632635 | -0.56° C | 95% | 1030.1 hPa | 0 mm | - | 0 W/m² | - |
| 1777632077 | 0° C | 95% | 1029.9 hPa | 0 mm | - | 0 W/m² | - |
* Rain latest hour (hover to see other rain measurements)
** Current wind speed in m/s (hover to see current wind gust speed)